^^
Saratoga-Weather Station Historical Data
Daily Summary for January 27, 2021 Units:  English    Metric   Both
Daily Weekly Monthly Yearly Custom
  High: Low: Average:
Temperature: 79 °F 60.4 °F 69.6 °F
Dew Point: 67.6 °F 56.5 °F 61.9 °F
Humidity: 89% 63% 77%
Wind Speed: 6mph 0mph 0.7mph
Wind Gust: 9mph - -
Wind- - SSE
Pressure: 30 in 29.9 in -
Precipitation: 0 in    
Historical Graphs
 
 
Tabular Data for January 27, 2021
Time Temperature Dew Point Pressure Wind Wind Speed Wind Gust Humidity Rainfall Rate (Hourly) solar
00:01 64.6 °F 57.6 °F 30 in Calm     78% 0 in 0 W/m2
00:06 64.6 °F 57.9 °F 30 in Calm     79% 0 in 0 W/m2
00:11 64.2 °F 57.6 °F 30 in Calm     79% 0 in 0 W/m2
00:16 64.2 °F 57.9 °F 30 in Calm     80% 0 in 0 W/m2
00:21 64 °F 57.7 °F 30 in Calm   1 mph 80% 0 in 0 W/m2
00:26 64 °F 57.7 °F 30 in Calm   2 mph 80% 0 in 0 W/m2
00:31 63.9 °F 57.6 °F 30 in Calm     80% 0 in 0 W/m2
00:36 63.9 °F 57.6 °F 30 in SSW 0.9 mph 2 mph 80% 0 in 0 W/m2
00:41 63.9 °F 57.9 °F 30 in Calm   2 mph 81% 0 in 0 W/m2
00:46 63.7 °F 57.7 °F 30 in Calm   1 mph 81% 0 in 0 W/m2
00:51 63.3 °F 57.4 °F 30 in Calm   2 mph 81% 0 in 0 W/m2
00:56 63.1 °F 57.6 °F 30 in Calm   1 mph 82% 0 in 0 W/m2
01:01 63.1 °F 57.6 °F 30 in SSW 0.9 mph 1 mph 82% 0 in 0 W/m2
01:06 63 °F 57.4 °F 30 in Calm     82% 0 in 0 W/m2
01:11 62.8 °F 57.2 °F 30 in Calm   1 mph 82% 0 in 0 W/m2
01:16 62.6 °F 57.4 °F 30 in Calm     83% 0 in 0 W/m2
01:21 62.4 °F 57.2 °F 30 in Calm   1 mph 83% 0 in 0 W/m2
01:26 62.2 °F 57 °F 30 in Calm     83% 0 in 0 W/m2
01:31 62.2 °F 57 °F 30 in Calm     83% 0 in 0 W/m2
01:36 62.1 °F 57.2 °F 30 in SSW 0.9 mph 2 mph 84% 0 in 0 W/m2
01:41 62.1 °F 57.2 °F 30 in SSW 0.9 mph 1 mph 84% 0 in 0 W/m2
01:46 62.1 °F 57.2 °F 30 in Calm   2 mph 84% 0 in 0 W/m2
01:51 62.1 °F 57.2 °F 30 in Calm     84% 0 in 0 W/m2
01:56 62.1 °F 57.2 °F 30 in Calm   1 mph 84% 0 in 0 W/m2
02:01 62.1 °F 57.2 °F 30 in Calm     84% 0 in 0 W/m2
02:06 62.1 °F 57.2 °F 30 in SSW 0.9 mph 2 mph 84% 0 in 0 W/m2
02:11 62.1 °F 57.2 °F 30 in Calm   2 mph 84% 0 in 0 W/m2
02:16 61.9 °F 57 °F 30 in Calm   1 mph 84% 0 in 0 W/m2
02:21 61.9 °F 57 °F 30 in Calm     84% 0 in 0 W/m2
02:26 61.7 °F 57.2 °F 30 in Calm     85% 0 in 0 W/m2
02:31 61.5 °F 57 °F 30 in Calm     85% 0 in 0 W/m2
02:36 61.5 °F 57 °F 30 in SSW 0.9 mph 1 mph 85% 0 in 0 W/m2
02:41 61.3 °F 57.2 °F 30 in SSW 0.9 mph 2 mph 86% 0 in 0 W/m2
02:46 61.3 °F 57.2 °F 30 in Calm     86% 0 in 0 W/m2
02:51 61.3 °F 57.2 °F 30 in Calm     86% 0 in 0 W/m2
02:56 61.5 °F 57.4 °F 30 in Calm   1 mph 86% 0 in 0 W/m2
03:01 61.5 °F 57.4 °F 30 in Calm     86% 0 in 0 W/m2
03:06 61.5 °F 57.4 °F 30 in SSW 0.9 mph 1 mph 86% 0 in 0 W/m2
03:11 61.5 °F 57.4 °F 30 in Calm   1 mph 86% 0 in 0 W/m2
03:16 61.7 °F 57.4 °F 30 in SSW 0.9 mph 1 mph 86% 0 in 0 W/m2
03:21 61.9 °F 57.6 °F 30 in Calm   1 mph 86% 0 in 0 W/m2
03:26 61.9 °F 57.4 °F 30 in SW 0.9 mph 1 mph 85% 0 in 0 W/m2
03:31 61.9 °F 57.4 °F 30 in SW 2 mph 2 mph 85% 0 in 0 W/m2
03:36 61.9 °F 57.4 °F 30 in Calm     85% 0 in 0 W/m2
03:41 61.9 °F 57.4 °F 30 in SW 2 mph 2 mph 85% 0 in 0 W/m2
03:46 62.1 °F 57.6 °F 30 in Calm     85% 0 in 0 W/m2
03:51 61.9 °F 57.4 °F 30 in SW 0.9 mph 2 mph 85% 0 in 0 W/m2
03:56 62.1 °F 57.6 °F 30 in SW 0.9 mph 2 mph 85% 0 in 0 W/m2
04:01 62.1 °F 57.2 °F 30 in SSW 0.9 mph 2 mph 84% 0 in 0 W/m2
04:06 62.1 °F 57.2 °F 29.9 in Calm     84% 0 in 0 W/m2
04:11 62.1 °F 57.2 °F 29.9 in Calm   2 mph 84% 0 in 0 W/m2
04:16 61.9 °F 57 °F 29.9 in SSW 0.9 mph 1 mph 84% 0 in 0 W/m2
04:21 61.9 °F 57.4 °F 29.9 in SSW 0.9 mph 1 mph 85% 0 in 0 W/m2
04:26 61.5 °F 57 °F 29.9 in Calm     85% 0 in 0 W/m2
04:31 61.5 °F 57 °F 29.9 in Calm     85% 0 in 0 W/m2
04:36 61.5 °F 57 °F 29.9 in Calm     85% 0 in 0 W/m2
04:41 61.5 °F 57 °F 29.9 in Calm     85% 0 in 0 W/m2
04:47 61.5 °F 57 °F 29.9 in Calm     85% 0 in 0 W/m2
04:52 61.3 °F 56.8 °F 29.9 in Calm     85% 0 in 0 W/m2
04:57 61.3 °F 56.8 °F 29.9 in Calm   1 mph 85% 0 in 0 W/m2
05:02 61.2 °F 56.7 °F 29.9 in Calm     85% 0 in 0 W/m2
05:07 61.2 °F 57 °F 29.9 in Calm     86% 0 in 0 W/m2
05:12 61.2 °F 57 °F 29.9 in Calm     86% 0 in 0 W/m2
05:17 61 °F 56.8 °F 29.9 in Calm     86% 0 in 0 W/m2
05:22 61 °F 56.8 °F 29.9 in Calm     86% 0 in 0 W/m2
05:27 60.6 °F 56.5 °F 29.9 in Calm     86% 0 in 0 W/m2
05:32 60.6 °F 56.7 °F 29.9 in Calm     87% 0 in 0 W/m2
05:37 60.6 °F 56.7 °F 29.9 in Calm     87% 0 in 0 W/m2
05:42 60.4 °F 56.5 °F 29.9 in Calm     87% 0 in 7 W/m2
05:47 60.4 °F 56.5 °F 29.9 in Calm     87% 0 in 9 W/m2
05:52 60.4 °F 56.5 °F 29.9 in Calm     87% 0 in 11 W/m2
05:57 60.4 °F 56.5 °F 29.9 in Calm     87% 0 in 14 W/m2
06:02 60.6 °F 56.7 °F 29.9 in Calm     87% 0 in 16 W/m2
06:07 60.6 °F 56.7 °F 29.9 in Calm     87% 0 in 21 W/m2
06:12 60.6 °F 57 °F 29.9 in Calm     88% 0 in 23 W/m2
06:17 60.6 °F 57 °F 29.9 in Calm     88% 0 in 26 W/m2
06:22 60.6 °F 57 °F 29.9 in Calm     88% 0 in 28 W/m2
06:27 60.8 °F 57.2 °F 29.9 in Calm     88% 0 in 32 W/m2
06:32 60.8 °F 57.2 °F 29.9 in Calm     88% 0 in 33 W/m2
06:37 61 °F 57.4 °F 29.9 in Calm     88% 0 in 40 W/m2
06:42 61 °F 57.4 °F 29.9 in Calm     88% 0 in 49 W/m2
06:47 61.2 °F 57.6 °F 29.9 in Calm     88% 0 in 63 W/m2
06:52 61.2 °F 57.6 °F 29.9 in Calm     88% 0 in 72 W/m2
06:57 61.3 °F 57.7 °F 29.9 in Calm     88% 0 in 81 W/m2
07:02 61.5 °F 57.9 °F 29.9 in Calm     88% 0 in 81 W/m2
07:07 61.9 °F 58.6 °F 29.9 in Calm     89% 0 in 76 W/m2
07:12 62.1 °F 58.5 °F 29.9 in Calm     88% 0 in 76 W/m2
07:17 62.2 °F 58.3 °F 29.9 in Calm     87% 0 in 77 W/m2
07:22 62.4 °F 58.5 °F 29.9 in Calm     87% 0 in 74 W/m2
07:27 62.6 °F 58.6 °F 29.9 in Calm     87% 0 in 70 W/m2
07:32 62.8 °F 58.5 °F 29.9 in Calm     86% 0 in 114 W/m2
07:37 63 °F 58.6 °F 29.9 in Calm     86% 0 in 163 W/m2
07:42 63.3 °F 58.5 °F 29.9 in Calm   2 mph 84% 0 in 200 W/m2
07:47 64 °F 58.8 °F 29.9 in Calm   2 mph 83% 0 in 295 W/m2
07:52 64.9 °F 58.6 °F 29.9 in Calm   1 mph 80% 0 in 160 W/m2
07:57 65.5 °F 58.8 °F 29.9 in Calm   2 mph 79% 0 in 181 W/m2
08:02 66 °F 59 °F 29.9 in ESE 0.9 mph 3 mph 78% 0 in 204 W/m2
08:07 66.6 °F 59.2 °F 29.9 in East 4 mph 4 mph 77% 0 in 141 W/m2
08:12 66.7 °F 58.6 °F 29.9 in East 0.9 mph 1 mph 75% 0 in 151 W/m2
08:17 66.7 °F 59 °F 29.9 in East 0.9 mph 2 mph 76% 0 in 169 W/m2
08:22 66.9 °F 59.2 °F 29.9 in Calm   1 mph 76% 0 in 176 W/m2
08:27 67.1 °F 59.4 °F 29.9 in Calm     76% 0 in 185 W/m2
08:32 67.5 °F 60.1 °F 29.9 in ENE 2 mph 2 mph 77% 0 in 193 W/m2
08:37 67.6 °F 59.4 °F 29.9 in NE 0.9 mph 1 mph 75% 0 in 197 W/m2
08:42 67.8 °F 59.2 °F 29.9 in NE 0.9 mph 2 mph 74% 0 in 200 W/m2
08:47 68.2 °F 59.5 °F 29.9 in Calm   2 mph 74% 0 in 195 W/m2
08:52 68.4 °F 59.4 °F 29.9 in NE 0.9 mph 2 mph 73% 0 in 174 W/m2
08:57 68.5 °F 59.5 °F 29.9 in NNE 0.9 mph 3 mph 73% 0 in 163 W/m2
09:02 68.5 °F 59.5 °F 29.9 in Calm   2 mph 73% 0 in 195 W/m2
09:07 68.7 °F 59.7 °F 29.9 in NNE 2 mph 5 mph 73% 0 in 237 W/m2
09:13 68.9 °F 60.3 °F 29.9 in NE 2 mph 2 mph 74% 0 in 253 W/m2
09:18 69.1 °F 60.1 °F 29.9 in Calm   5 mph 73% 0 in 251 W/m2
09:23 69.3 °F 60.3 °F 29.9 in Calm   4 mph 73% 0 in 223 W/m2
09:28 69.3 °F 60.3 °F 29.9 in North 2.9 mph 3 mph 73% 0 in 209 W/m2
09:33 69.3 °F 60.3 °F 29.9 in East 2 mph 4 mph 73% 0 in 209 W/m2
09:38 69.1 °F 60.1 °F 29.9 in ENE 2 mph 4 mph 73% 0 in 211 W/m2
09:43 69.1 °F 60.4 °F 29.9 in ESE 0.9 mph 3 mph 74% 0 in 251 W/m2
09:48 69.1 °F 60.4 °F 29.9 in ESE 2 mph 3 mph 74% 0 in 362 W/m2
09:53 69.4 °F 60.8 °F 29.9 in NE 2.9 mph 4 mph 74% 0 in 408 W/m2
09:58 70 °F 61 °F 29.9 in NE 0.9 mph 3 mph 73% 0 in 408 W/m2
10:03 70.3 °F 61.3 °F 29.9 in SE 2 mph 5 mph 73% 0 in 443 W/m2
10:08 70.7 °F 61.2 °F 29.9 in Calm   3 mph 72% 0 in 429 W/m2
10:13 71.1 °F 61.9 °F 29.9 in SE 2 mph 5 mph 73% 0 in 323 W/m2
10:18 71.4 °F 61.5 °F 29.9 in NE 0.9 mph 2 mph 71% 0 in 378 W/m2
10:23 71.8 °F 61.9 °F 29.9 in ENE 0.9 mph 4 mph 71% 0 in 313 W/m2
10:28 72 °F 62.4 °F 29.9 in SE 0.9 mph 3 mph 72% 0 in 387 W/m2
10:33 72.1 °F 62.6 °F 29.9 in East 0.9 mph 4 mph 72% 0 in 417 W/m2
10:38 72.5 °F 63 °F 29.9 in East 2 mph 4 mph 72% 0 in 487 W/m2
10:43 72.9 °F 62.4 °F 29.9 in ESE 2.9 mph 3 mph 70% 0 in 329 W/m2
10:48 73 °F 62.2 °F 29.9 in East 0.9 mph 3 mph 69% 0 in 522 W/m2
10:53 73.2 °F 62.8 °F 29.9 in ENE 2 mph 4 mph 70% 0 in 492 W/m2
10:58 73.8 °F 63.3 °F 29.9 in NE 2 mph 6 mph 70% 0 in 496 W/m2
11:03 74.1 °F 63.3 °F 29.9 in SE 0.9 mph 2 mph 69% 0 in 520 W/m2
11:08 74.3 °F 62.6 °F 29.9 in ENE 2 mph 4 mph 67% 0 in 571 W/m2
11:13 74.5 °F 63.7 °F 29.9 in ESE 2 mph 2 mph 69% 0 in 487 W/m2
11:18 74.8 °F 64 °F 29.9 in East 0.9 mph 3 mph 69% 0 in 566 W/m2
11:23 75 °F 63.3 °F 29.9 in East 0.9 mph 2 mph 67% 0 in 497 W/m2
11:28 75.2 °F 63.1 °F 29.9 in North 0.9 mph 3 mph 66% 0 in 622 W/m2
11:33 75.7 °F 63.1 °F 29.9 in Calm   2 mph 65% 0 in 719 W/m2
11:38 76.3 °F 64 °F 29.9 in ESE 2.9 mph 4 mph 66% 0 in 543 W/m2
11:43 76.3 °F 63.1 °F 29.9 in East 2 mph 4 mph 64% 0 in 459 W/m2
11:48 76.3 °F 63.7 °F 29.9 in Calm   3 mph 65% 0 in 408 W/m2
11:53 76.3 °F 64 °F 29.9 in ENE 0.9 mph 4 mph 66% 0 in 431 W/m2
11:58 76.3 °F 64 °F 29.9 in Calm   2 mph 66% 0 in 432 W/m2
12:03 76.5 °F 64.2 °F 29.9 in East 4 mph 4 mph 66% 0 in 429 W/m2
12:08 76.5 °F 63.9 °F 29.9 in NE 2 mph 4 mph 65% 0 in 473 W/m2
12:13 76.3 °F 63.7 °F 29.9 in West 0.9 mph 3 mph 65% 0 in 439 W/m2
12:18 76.3 °F 64.6 °F 29.9 in Calm   4 mph 67% 0 in 353 W/m2
12:23 76.3 °F 64 °F 29.9 in ENE 2 mph 4 mph 66% 0 in 306 W/m2
12:28 75.9 °F 64.2 °F 29.9 in ESE 0.9 mph 2 mph 67% 0 in 334 W/m2
12:33 75.9 °F 63.7 °F 29.9 in Calm   2 mph 66% 0 in 279 W/m2
12:38 75.6 °F 63.3 °F 29.9 in WNW 2 mph 3 mph 66% 0 in 281 W/m2
12:43 75.4 °F 63.1 °F 29.9 in WNW 0.9 mph 2 mph 66% 0 in 287 W/m2
12:48 75.2 °F 63.9 °F 29.9 in West 0.9 mph 2 mph 68% 0 in 244 W/m2
12:53 75.2 °F 63.9 °F 29.9 in West 0.9 mph 2 mph 68% 0 in 193 W/m2
12:58 75 °F 63.7 °F 29.9 in Calm   1 mph 68% 0 in 160 W/m2
13:03 75 °F 64.6 °F 29.9 in Calm     70% 0 in 151 W/m2
13:08 75.2 °F 65.1 °F 29.9 in Calm   1 mph 71% 0 in 118 W/m2
13:13 75.4 °F 66.6 °F 29.9 in Calm     74% 0 in 174 W/m2
13:18 74.8 °F 65.7 °F 29.9 in West 2 mph 2 mph 73% 0 in 174 W/m2
13:23 74.5 °F 65.7 °F 29.9 in WSW 4.9 mph 5 mph 74% 0 in 169 W/m2
13:28 73.9 °F 65.1 °F 29.9 in West 0.9 mph 3 mph 74% 0 in 183 W/m2
13:33 73.8 °F 64.9 °F 29.9 in West 2.9 mph 4 mph 74% 0 in 153 W/m2
13:38 73.6 °F 65.5 °F 29.9 in WSW 4.9 mph 5 mph 76% 0 in 120 W/m2
13:43 73.2 °F 65.1 °F 29.9 in West 2.9 mph 9 mph 76% 0 in 171 W/m2
13:48 72.9 °F 66 °F 29.9 in West 0.9 mph 2 mph 79% 0 in 218 W/m2
13:53 72.7 °F 65.5 °F 29.9 in WNW 0.9 mph 4 mph 78% 0 in 218 W/m2
13:58 72.5 °F 65.3 °F 29.9 in WNW 4 mph 5 mph 78% 0 in 197 W/m2
14:03 72.3 °F 65.1 °F 29.9 in WNW 2 mph 3 mph 78% 0 in 167 W/m2
14:08 72.3 °F 65.5 °F 29.9 in NW 2.9 mph 5 mph 79% 0 in 179 W/m2
14:13 72.3 °F 65.5 °F 29.9 in Calm   1 mph 79% 0 in 204 W/m2
14:18 72.5 °F 65.3 °F 29.9 in NNW 2 mph 3 mph 78% 0 in 257 W/m2
14:23 72.7 °F 65.8 °F 29.9 in WSW 2 mph 3 mph 79% 0 in 311 W/m2
14:28 72.9 °F 65.7 °F 29.9 in WNW 2 mph 3 mph 78% 0 in 288 W/m2
14:33 73 °F 64.9 °F 29.9 in Calm   2 mph 76% 0 in 299 W/m2
14:38 73.2 °F 65.7 °F 29.9 in West 2.9 mph 4 mph 77% 0 in 388 W/m2
14:43 73.4 °F 64.9 °F 29.9 in NW 0.9 mph 4 mph 75% 0 in 397 W/m2
14:48 73.6 °F 65.5 °F 29.9 in WNW 0.9 mph 2 mph 76% 0 in 330 W/m2
14:53 73.9 °F 65.8 °F 29.9 in WNW 0.9 mph 2 mph 76% 0 in 288 W/m2
14:58 74.1 °F 65.7 °F 29.9 in Calm   1 mph 75% 0 in 352 W/m2
15:03 74.7 °F 65.5 °F 29.9 in Calm   2 mph 73% 0 in 341 W/m2
15:08 74.8 °F 65.1 °F 29.9 in NE 2 mph 2 mph 72% 0 in 311 W/m2
15:13 75 °F 65.3 °F 29.9 in Calm   3 mph 72% 0 in 267 W/m2
15:18 75 °F 65.3 °F 29.9 in ENE 2 mph 4 mph 72% 0 in 336 W/m2
15:23 75 °F 65.8 °F 29.9 in Calm   3 mph 73% 0 in 425 W/m2
15:28 75.2 °F 66 °F 29.9 in ENE 0.9 mph 3 mph 73% 0 in 362 W/m2
15:33 75.4 °F 66.2 °F 29.9 in SE 2 mph 2 mph 73% 0 in 350 W/m2
15:38 75.6 °F 65.8 °F 29.9 in North 0.9 mph 5 mph 72% 0 in 439 W/m2
15:43 75.9 °F 65.5 °F 29.9 in ENE 0.9 mph 4 mph 70% 0 in 517 W/m2
15:48 76.3 °F 66.2 °F 29.9 in East 0.9 mph 5 mph 71% 0 in 323 W/m2
15:53 76.5 °F 66.4 °F 29.9 in Calm   2 mph 71% 0 in 343 W/m2
15:58 76.8 °F 66.7 °F 29.9 in Calm   2 mph 71% 0 in 323 W/m2
16:03 77 °F 66.4 °F 29.9 in Calm   2 mph 70% 0 in 322 W/m2
16:08 77.4 °F 67.3 °F 29.9 in Calm   1 mph 71% 0 in 281 W/m2
16:13 77.4 °F 67.3 °F 29.9 in WSW 2 mph 3 mph 71% 0 in 288 W/m2
16:18 77.2 °F 66.2 °F 29.9 in NE 0.9 mph 1 mph 69% 0 in 246 W/m2
16:23 77.2 °F 66.6 °F 29.9 in SE 2.9 mph 6 mph 70% 0 in 262 W/m2
16:28 77 °F 67.6 °F 29.9 in ESE 0.9 mph 2 mph 73% 0 in 415 W/m2
16:33 77 °F 66.4 °F 29.9 in Calm   6 mph 70% 0 in 311 W/m2
16:38 77.2 °F 66.2 °F 29.9 in WNW 2 mph 4 mph 69% 0 in 397 W/m2
16:43 77 °F 66 °F 29.9 in NE 2.9 mph 7 mph 69% 0 in 243 W/m2
16:48 76.6 °F 65.3 °F 29.9 in ENE 0.9 mph 2 mph 68% 0 in 190 W/m2
16:53 76.5 °F 66 °F 29.9 in ENE 0.9 mph 3 mph 70% 0 in 262 W/m2
16:58 76.3 °F 66.2 °F 29.9 in ENE 0.9 mph 2 mph 71% 0 in 236 W/m2
17:03 76.3 °F 65.8 °F 29.9 in Calm   3 mph 70% 0 in 236 W/m2
17:08 76.5 °F 66.4 °F 29.9 in Calm   6 mph 71% 0 in 218 W/m2
17:13 76.1 °F 66.4 °F 29.9 in Calm   7 mph 72% 0 in 213 W/m2
17:18 75.9 °F 66.2 °F 29.9 in West 0.9 mph 3 mph 72% 0 in 199 W/m2
17:23 75.7 °F 66 °F 29.9 in SW 0.9 mph 6 mph 72% 0 in 236 W/m2
17:28 75.7 °F 65.7 °F 29.9 in East 0.9 mph 7 mph 71% 0 in 388 W/m2
17:33 75.9 °F 66.6 °F 29.9 in ESE 0.9 mph 4 mph 73% 0 in 378 W/m2
17:38 76.1 °F 66 °F 29.9 in SE 2.9 mph 5 mph 71% 0 in 309 W/m2
17:43 76.3 °F 65.8 °F 29.9 in East 2 mph 4 mph 70% 0 in 304 W/m2
17:48 76.3 °F 65.8 °F 29.9 in NNW 0.9 mph 4 mph 70% 0 in 385 W/m2
17:53 76.5 °F 66 °F 29.9 in ENE 2 mph 7 mph 70% 0 in 348 W/m2
17:58 76.5 °F 66 °F 29.9 in West 2 mph 2 mph 70% 0 in 255 W/m2
18:03 76.3 °F 65.8 °F 29.9 in ESE 2.9 mph 7 mph 70% 0 in 221 W/m2
18:08 76.3 °F 66.2 °F 29.9 in ESE 2.9 mph 3 mph 71% 0 in 265 W/m2
18:13 76.3 °F 66.6 °F 29.9 in East 2 mph 3 mph 72% 0 in 413 W/m2
18:18 76.6 °F 67.3 °F 29.9 in Calm   2 mph 73% 0 in 396 W/m2
18:23 76.8 °F 66.7 °F 29.9 in WSW 2 mph 3 mph 71% 0 in 183 W/m2
18:28 77 °F 67.3 °F 29.9 in East 0.9 mph 4 mph 72% 0 in 269 W/m2
18:33 77.4 °F 66.7 °F 29.9 in East 2 mph 2 mph 70% 0 in 325 W/m2
18:38 77.5 °F 66.6 °F 29.9 in NE 2.9 mph 4 mph 69% 0 in 132 W/m2
18:43 77.2 °F 66.6 °F 29.9 in SE 0.9 mph 4 mph 70% 0 in 125 W/m2
18:48 76.8 °F 66.7 °F 29.9 in SSW 2 mph 2 mph 71% 0 in 213 W/m2
18:53 77.2 °F 66.6 °F 29.9 in Calm   1 mph 70% 0 in 390 W/m2
18:58 78.1 °F 66.7 °F 29.9 in East 2.9 mph 4 mph 68% 0 in 439 W/m2
19:03 78.6 °F 65.8 °F 29.9 in ESE 2 mph 4 mph 65% 0 in 392 W/m2
19:08 79 °F 65.8 °F 29.9 in ENE 0.9 mph 7 mph 64% 0 in 274 W/m2
19:13 78.6 °F 65.5 °F 29.9 in ESE 0.9 mph 4 mph 64% 0 in 269 W/m2
19:19 78.8 °F 65.1 °F 29.9 in SE 2.9 mph 7 mph 63% 0 in 239 W/m2
19:24 78.3 °F 65.1 °F 29.9 in Calm   6 mph 64% 0 in 207 W/m2
19:29 78.1 °F 65.3 °F 29.9 in ESE 2.9 mph 7 mph 65% 0 in 195 W/m2
19:34 77.5 °F 65.7 °F 29.9 in WNW 0.9 mph 2 mph 67% 0 in 199 W/m2
19:39 77.5 °F 64.8 °F 29.9 in East 2 mph 7 mph 65% 0 in 105 W/m2
19:44 77.2 °F 64.9 °F 29.9 in East 2.9 mph 4 mph 66% 0 in 104 W/m2
19:49 76.8 °F 64.9 °F 29.9 in Calm   3 mph 67% 0 in 114 W/m2
19:54 76.6 °F 65.3 °F 29.9 in Calm   2 mph 68% 0 in 114 W/m2
19:59 76.5 °F 65.1 °F 29.9 in ESE 6 mph 6 mph 68% 0 in 77 W/m2
20:04 76.3 °F 64.6 °F 29.9 in ENE 0.9 mph 2 mph 67% 0 in 62 W/m2
20:09 76.1 °F 65.1 °F 29.9 in North 0.9 mph 2 mph 69% 0 in 62 W/m2
20:14 75.7 °F 65.3 °F 29.9 in ESE 0.9 mph 2 mph 70% 0 in 65 W/m2
20:19 75.4 °F 64.6 °F 29.9 in East 2 mph 2 mph 69% 0 in 63 W/m2
20:24 75.2 °F 64.8 °F 29.9 in Calm   1 mph 70% 0 in 58 W/m2
20:29 75 °F 63.7 °F 29.9 in Calm   4 mph 68% 0 in 51 W/m2
20:34 74.8 °F 64 °F 29.9 in Calm   3 mph 69% 0 in 44 W/m2
20:39 74.8 °F 65.1 °F 29.9 in Calm   4 mph 72% 0 in 39 W/m2
20:44 74.7 °F 65.5 °F 29.9 in Calm   1 mph 73% 0 in 39 W/m2
20:49 74.1 °F 64.9 °F 29.9 in South 2 mph 2 mph 73% 0 in 33 W/m2
20:54 73.8 °F 65.3 °F 29.9 in South 2 mph 2 mph 75% 0 in 28 W/m2
20:59 73.2 °F 64.4 °F 29.9 in South 0.9 mph 2 mph 74% 0 in 23 W/m2
21:04 73 °F 64.6 °F 29.9 in Calm   1 mph 75% 0 in 21 W/m2
21:09 72.9 °F 64.8 °F 29.9 in Calm   1 mph 76% 0 in 18 W/m2
21:14 72.5 °F 64.9 °F 29.9 in Calm   1 mph 77% 0 in 14 W/m2
21:19 72.1 °F 64.6 °F 29.9 in Calm   1 mph 77% 0 in 11 W/m2
21:24 72 °F 64.8 °F 29.9 in Calm   1 mph 78% 0 in 7 W/m2
21:29 71.6 °F 64.8 °F 29.9 in Calm   1 mph 79% 0 in 7 W/m2
21:34 71.4 °F 64.6 °F 29.9 in Calm     79% 0 in 5 W/m2
21:39 71.2 °F 64.8 °F 29.9 in Calm     80% 0 in 5 W/m2
21:44 71.1 °F 64.9 °F 29.9 in Calm   2 mph 81% 0 in 0 W/m2
21:49 70.9 °F 64.8 °F 29.9 in Calm     81% 0 in 0 W/m2
21:54 70.5 °F 64.4 °F 29.9 in Calm   1 mph 81% 0 in 0 W/m2
21:59 70.3 °F 64.6 °F 29.9 in Calm   1 mph 82% 0 in 0 W/m2
22:04 70.2 °F 64.4 °F 29.9 in Calm     82% 0 in 0 W/m2
22:09 70.2 °F 64.4 °F 29.9 in Calm   1 mph 82% 0 in 0 W/m2
22:14 70 °F 64.6 °F 29.9 in Calm   1 mph 83% 0 in 0 W/m2
22:19 69.6 °F 64.2 °F 29.9 in Calm     83% 0 in 0 W/m2
22:24 69.4 °F 64 °F 29.9 in Calm     83% 0 in 0 W/m2
22:29 69.3 °F 63.9 °F 29.9 in Calm     83% 0 in 0 W/m2
22:34 69.1 °F 64 °F 29.9 in Calm     84% 0 in 0 W/m2
22:39 68.7 °F 63.3 °F 29.9 in Calm     83% 0 in 0 W/m2
22:44 68.5 °F 63.5 °F 29.9 in South 0.9 mph 2 mph 84% 0 in 0 W/m2
22:49 68.4 °F 63.3 °F 29.9 in South 0.9 mph 2 mph 84% 0 in 0 W/m2
22:54 68 °F 63 °F 29.9 in South 0.9 mph 1 mph 84% 0 in 0 W/m2
22:59 67.8 °F 62.8 °F 29.9 in Calm   1 mph 84% 0 in 0 W/m2
23:04 67.6 °F 63 °F 29.9 in Calm     85% 0 in 0 W/m2
23:09 67.5 °F 62.8 °F 29.9 in Calm     85% 0 in 0 W/m2
23:14 67.3 °F 62.6 °F 29.9 in Calm     85% 0 in 0 W/m2
23:19 67.3 °F 62.6 °F 29.9 in Calm     85% 0 in 0 W/m2
23:24 66.9 °F 62.2 °F 29.9 in Calm     85% 0 in 0 W/m2
23:29 66.7 °F 62.4 °F 29.9 in Calm     86% 0 in 0 W/m2
23:34 66.7 °F 62.4 °F 29.9 in Calm   1 mph 86% 0 in 0 W/m2
23:39 66.6 °F 62.2 °F 29.9 in Calm     86% 0 in 0 W/m2
23:44 66.4 °F 62.1 °F 29.9 in Calm     86% 0 in 0 W/m2
23:49 66.2 °F 61.9 °F 29.9 in Calm     86% 0 in 0 W/m2
23:54 66 °F 61.7 °F 29.9 in Calm     86% 0 in 0 W/m2
23:59 65.8 °F 61.5 °F 29.9 in Calm     86% 0 in 0 W/m2
Juneau County Weather
Compliments of Weather Underground - 4 mb